TimeCST,TemperatureF,Dew PointF,Humidity,Sea Level PressureIn,VisibilityMPH,Wind Direction,Wind SpeedMPH,Gust SpeedMPH,PrecipitationIn,Events,Conditions,WindDirDegrees,DateUTC
12:00 AM,82,77,79,29.99,12,East,10.4,,,,Scattered Clouds,90,2013-06-24 06:00:00
3:00 AM,81,76,82,29.97,12,East,8.1,,,,Scattered Clouds,100,2013-06-24 09:00:00
5:00 AM,80.6,77.0,89,29.95,6.2,East,8.1,-,N/A,,Partly Cloudy,90,2013-06-24 11:00:00
6:00 AM,81,76,82,29.99,12,East,5.8,,,,Scattered Clouds,90,2013-06-24 12:00:00
6:00 AM,80.6,77.0,89,29.98,6.2,East,5.8,-,N/A,,Partly Cloudy,90,2013-06-24 12:00:00
7:00 AM,82.4,77.0,84,30.01,6.2,East,8.1,-,N/A,,Scattered Clouds,90,2013-06-24 13:00:00
8:00 AM,84.2,77.0,79,30.01,6.2,East,9.2,-,N/A,,Scattered Clouds,90,2013-06-24 14:00:00
9:00 AM,86,77,68,30.03,14,East,11.5,,,,Partly Cloudy,90,2013-06-24 15:00:00
9:00 AM,86.0,77.0,74,30.02,6.2,East,11.5,-,N/A,,Scattered Clouds,90,2013-06-24 15:00:00
10:00 AM,86.0,77.0,74,30.02,6.2,East,10.4,-,N/A,,Scattered Clouds,80,2013-06-24 16:00:00
11:00 AM,87.8,77.0,70,30.02,6.2,East,10.4,-,N/A,,Scattered Clouds,80,2013-06-24 17:00:00
12:00 PM,88,77,62,30.02,12,East,11.5,,,,Partly Cloudy,80,2013-06-24 18:00:00
12:00 PM,87.8,77.0,70,30.01,6.2,East,11.5,-,N/A,,Scattered Clouds,80,2013-06-24 18:00:00
1:00 PM,87.8,77.0,70,30.00,6.2,East,11.5,-,N/A,,Scattered Clouds,80,2013-06-24 19:00:00
2:00 PM,87.8,75.2,66,29.98,6.2,East,10.4,-,N/A,,Scattered Clouds,80,2013-06-24 20:00:00
3:00 PM,88,75,58,29.98,14,East,9.2,,,,Partly Cloudy,80,2013-06-24 21:00:00
3:00 PM,87.8,75.2,66,29.97,6.2,East,9.2,-,N/A,,Scattered Clouds,80,2013-06-24 21:00:00
4:00 PM,87.8,78.8,75,29.96,6.2,East,9.2,-,N/A,,Scattered Clouds,80,2013-06-24 22:00:00
5:00 PM,86.0,77.0,74,29.96,6.2,East,9.2,-,N/A,,Scattered Clouds,90,2013-06-24 23:00:00
6:00 PM,85,76,69,29.97,12,East,6.9,,,,Partly Cloudy,90,2013-06-25 00:00:00
6:00 PM,84.2,77.0,79,29.96,6.2,East,6.9,-,N/A,,Scattered Clouds,90,2013-06-25 00:00:00